CJZ5 weather

CLOSED Virden (West) Airport
Virden, Manitoba, Canada

Public forecast

Using degrees Celsius for public forecast. Weather courtesy of forecast.io.

Closest aviation weather report (METAR) to Virden (West) Airport

Closest report is Brandon Municipal Airport, 43.2 nm (79.9 km) E. Retrieved 2019/12/06 15:00 UTC (21 minutes ago):

CYBR 061500Z 00000KT 15SM BKN094 OVC220 M14/M17 A3013 RMK AC6CI2 SLP244

Closest aviation forecast (TAF) to Virden (West) Airport

Closest forecast is Brandon Municipal Airport, 43.2 nm (79.9 km) E. Retrieved 2019/12/06 12:45 UTC (3 hours ago):

TAF TAF CYBR 061142Z 0612/0624 26010KT P6SM SCT250 FM061600 15008KT P6SM BKN015 TEMPO 0616/0622 4SM -SN BR BKN007 FM062200 28010KT P6SM BKN012 RMK NXT FCST BY 061800Z